sensor_id;sensor_type;location;lat;lon;timestamp;temperature;humidity
79187;SHT31;68762;51.980;5.646;2023-05-07T00:00:20;19.1;64.2
79187;SHT31;68762;51.980;5.646;2023-05-07T00:02:49;19.1;64.0
79187;SHT31;68762;51.980;5.646;2023-05-07T00:05:18;19.1;64.4
79187;SHT31;68762;51.980;5.646;2023-05-07T00:07:46;19.1;64.0
79187;SHT31;68762;51.980;5.646;2023-05-07T00:10:15;19.0;64.4
79187;SHT31;68762;51.980;5.646;2023-05-07T00:12:44;19.0;64.2
79187;SHT31;68762;51.980;5.646;2023-05-07T00:15:12;19.0;64.2
79187;SHT31;68762;51.980;5.646;2023-05-07T00:17:41;19.0;64.2
79187;SHT31;68762;51.980;5.646;2023-05-07T00:20:10;19.0;64.4
79187;SHT31;68762;51.980;5.646;2023-05-07T00:22:39;19.0;64.3
79187;SHT31;68762;51.980;5.646;2023-05-07T00:25:08;19.0;64.2
79187;SHT31;68762;51.980;5.646;2023-05-07T00:27:37;19.0;64.1
79187;SHT31;68762;51.980;5.646;2023-05-07T00:30:06;19.0;64.0
79187;SHT31;68762;51.980;5.646;2023-05-07T00:32:35;18.9;64.2
79187;SHT31;68762;51.980;5.646;2023-05-07T00:35:04;18.9;64.1
79187;SHT31;68762;51.980;5.646;2023-05-07T00:37:33;18.9;64.1
79187;SHT31;68762;51.980;5.646;2023-05-07T00:40:01;18.9;64.0
79187;SHT31;68762;51.980;5.646;2023-05-07T00:42:33;18.9;63.9
79187;SHT31;68762;51.980;5.646;2023-05-07T00:45:03;18.9;64.4
79187;SHT31;68762;51.980;5.646;2023-05-07T00:47:34;18.8;64.2
79187;SHT31;68762;51.980;5.646;2023-05-07T00:50:03;18.8;64.4
79187;SHT31;68762;51.980;5.646;2023-05-07T00:52:32;18.8;64.5
79187;SHT31;68762;51.980;5.646;2023-05-07T00:55:05;18.8;64.3
79187;SHT31;68762;51.980;5.646;2023-05-07T00:57:36;18.8;64.5
79187;SHT31;68762;51.980;5.646;2023-05-07T01:00:06;18.8;64.5
79187;SHT31;68762;51.980;5.646;2023-05-07T01:02:36;18.8;64.6
79187;SHT31;68762;51.980;5.646;2023-05-07T01:05:06;18.7;64.7
79187;SHT31;68762;51.980;5.646;2023-05-07T01:07:37;18.7;64.9
79187;SHT31;68762;51.980;5.646;2023-05-07T01:10:09;18.7;64.9
79187;SHT31;68762;51.980;5.646;2023-05-07T01:12:40;18.7;65.1
79187;SHT31;68762;51.980;5.646;2023-05-07T01:15:10;18.7;64.8
79187;SHT31;68762;51.980;5.646;2023-05-07T01:17:41;18.7;64.9
79187;SHT31;68762;51.980;5.646;2023-05-07T01:20:11;18.7;65.0
79187;SHT31;68762;51.980;5.646;2023-05-07T01:22:40;18.7;64.8
79187;SHT31;68762;51.980;5.646;2023-05-07T01:25:11;18.7;64.6
79187;SHT31;68762;51.980;5.646;2023-05-07T01:27:42;18.7;64.5
79187;SHT31;68762;51.980;5.646;2023-05-07T01:30:11;18.7;65.1
79187;SHT31;68762;51.980;5.646;2023-05-07T01:32:43;18.7;65.3
79187;SHT31;68762;51.980;5.646;2023-05-07T01:35:21;18.7;65.2
79187;SHT31;68762;51.980;5.646;2023-05-07T01:37:53;18.7;65.1
79187;SHT31;68762;51.980;5.646;2023-05-07T01:40:24;18.7;64.8
79187;SHT31;68762;51.980;5.646;2023-05-07T01:42:54;18.7;64.7
79187;SHT31;68762;51.980;5.646;2023-05-07T01:45:23;18.7;64.8
79187;SHT31;68762;51.980;5.646;2023-05-07T01:47:53;18.7;64.8
79187;SHT31;68762;51.980;5.646;2023-05-07T01:50:23;18.7;65.2
79187;SHT31;68762;51.980;5.646;2023-05-07T01:52:52;18.7;64.9
79187;SHT31;68762;51.980;5.646;2023-05-07T01:55:23;18.7;64.8
79187;SHT31;68762;51.980;5.646;2023-05-07T01:57:51;18.7;64.7
79187;SHT31;68762;51.980;5.646;2023-05-07T02:00:20;18.7;64.8
79187;SHT31;68762;51.980;5.646;2023-05-07T02:02:49;18.7;64.9
79187;SHT31;68762;51.980;5.646;2023-05-07T02:05:19;18.7;64.9
79187;SHT31;68762;51.980;5.646;2023-05-07T02:07:48;18.7;64.7
79187;SHT31;68762;51.980;5.646;2023-05-07T02:10:16;18.7;64.5
79187;SHT31;68762;51.980;5.646;2023-05-07T02:12:45;18.7;64.4
79187;SHT31;68762;51.980;5.646;2023-05-07T02:15:13;18.7;64.6
79187;SHT31;68762;51.980;5.646;2023-05-07T02:18:00;18.7;64.8
79187;SHT31;68762;51.980;5.646;2023-05-07T02:20:31;18.7;64.9
79187;SHT31;68762;51.980;5.646;2023-05-07T02:23:00;18.7;64.5
79187;SHT31;68762;51.980;5.646;2023-05-07T02:25:31;18.7;64.8
79187;SHT31;68762;51.980;5.646;2023-05-07T02:27:59;18.7;64.4
79187;SHT31;68762;51.980;5.646;2023-05-07T02:30:28;18.7;64.3
79187;SHT31;68762;51.980;5.646;2023-05-07T02:32:57;18.7;64.5
79187;SHT31;68762;51.980;5.646;2023-05-07T02:35:25;18.7;64.5
79187;SHT31;68762;51.980;5.646;2023-05-07T02:37:54;18.7;65.0
79187;SHT31;68762;51.980;5.646;2023-05-07T02:40:23;18.7;64.8
79187;SHT31;68762;51.980;5.646;2023-05-07T02:42:51;18.7;64.6
79187;SHT31;68762;51.980;5.646;2023-05-07T02:45:20;18.7;65.1
79187;SHT31;68762;51.980;5.646;2023-05-07T02:47:48;18.7;65.5
79187;SHT31;68762;51.980;5.646;2023-05-07T02:50:17;18.6;65.6
79187;SHT31;68762;51.980;5.646;2023-05-07T02:52:46;18.6;65.0
79187;SHT31;68762;51.980;5.646;2023-05-07T02:55:14;18.6;65.2
79187;SHT31;68762;51.980;5.646;2023-05-07T02:57:43;18.6;65.4
79187;SHT31;68762;51.980;5.646;2023-05-07T03:00:13;18.6;65.1
79187;SHT31;68762;51.980;5.646;2023-05-07T03:02:42;18.6;64.8
79187;SHT31;68762;51.980;5.646;2023-05-07T03:05:11;18.6;65.1
79187;SHT31;68762;51.980;5.646;2023-05-07T03:07:40;18.6;65.1
79187;SHT31;68762;51.980;5.646;2023-05-07T03:10:11;18.6;65.3
79187;SHT31;68762;51.980;5.646;2023-05-07T03:12:40;18.6;65.1
79187;SHT31;68762;51.980;5.646;2023-05-07T03:15:10;18.6;65.1
79187;SHT31;68762;51.980;5.646;2023-05-07T03:17:39;18.6;64.8
79187;SHT31;68762;51.980;5.646;2023-05-07T03:20:09;18.6;64.0
79187;SHT31;68762;51.980;5.646;2023-05-07T03:22:38;18.6;63.9
79187;SHT31;68762;51.980;5.646;2023-05-07T03:25:08;18.5;64.3
79187;SHT31;68762;51.980;5.646;2023-05-07T03:27:37;18.5;64.7
79187;SHT31;68762;51.980;5.646;2023-05-07T03:30:06;18.5;63.9
79187;SHT31;68762;51.980;5.646;2023-05-07T03:32:36;18.5;64.3
79187;SHT31;68762;51.980;5.646;2023-05-07T03:35:05;18.5;64.3
79187;SHT31;68762;51.980;5.646;2023-05-07T03:37:35;18.5;64.2
79187;SHT31;68762;51.980;5.646;2023-05-07T03:40:03;18.4;64.2
79187;SHT31;68762;51.980;5.646;2023-05-07T03:42:32;18.4;64.5
79187;SHT31;68762;51.980;5.646;2023-05-07T03:45:01;18.4;64.7
79187;SHT31;68762;51.980;5.646;2023-05-07T03:47:30;18.4;64.9
79187;SHT31;68762;51.980;5.646;2023-05-07T03:49:59;18.4;64.8
79187;SHT31;68762;51.980;5.646;2023-05-07T03:52:28;18.4;65.1
79187;SHT31;68762;51.980;5.646;2023-05-07T03:54:56;18.4;64.9
79187;SHT31;68762;51.980;5.646;2023-05-07T03:57:25;18.4;64.8
79187;SHT31;68762;51.980;5.646;2023-05-07T03:59:53;18.4;65.0
79187;SHT31;68762;51.980;5.646;2023-05-07T04:02:22;18.4;64.9
79187;SHT31;68762;51.980;5.646;2023-05-07T04:04:52;18.4;65.2
79187;SHT31;68762;51.980;5.646;2023-05-07T04:07:23;18.3;65.2
79187;SHT31;68762;51.980;5.646;2023-05-07T04:09:51;18.3;65.2
79187;SHT31;68762;51.980;5.646;2023-05-07T04:12:20;18.3;65.0
79187;SHT31;68762;51.980;5.646;2023-05-07T04:14:49;18.3;64.8
79187;SHT31;68762;51.980;5.646;2023-05-07T04:17:17;18.3;65.3
79187;SHT31;68762;51.980;5.646;2023-05-07T04:19:46;18.3;65.5
79187;SHT31;68762;51.980;5.646;2023-05-07T04:22:15;18.3;65.7
79187;SHT31;68762;51.980;5.646;2023-05-07T04:24:43;18.3;65.5
79187;SHT31;68762;51.980;5.646;2023-05-07T04:27:12;18.4;65.9
79187;SHT31;68762;51.980;5.646;2023-05-07T04:29:41;18.4;65.7
79187;SHT31;68762;51.980;5.646;2023-05-07T04:32:13;18.4;65.4
79187;SHT31;68762;51.980;5.646;2023-05-07T04:34:42;18.4;65.5
79187;SHT31;68762;51.980;5.646;2023-05-07T04:37:10;18.4;65.5
79187;SHT31;68762;51.980;5.646;2023-05-07T04:39:39;18.4;65.7
79187;SHT31;68762;51.980;5.646;2023-05-07T04:42:07;18.4;65.7
79187;SHT31;68762;51.980;5.646;2023-05-07T04:44:36;18.4;65.7
79187;SHT31;68762;51.980;5.646;2023-05-07T04:47:05;18.4;65.4
79187;SHT31;68762;51.980;5.646;2023-05-07T04:49:34;18.4;65.8
79187;SHT31;68762;51.980;5.646;2023-05-07T04:52:02;18.4;65.5
79187;SHT31;68762;51.980;5.646;2023-05-07T04:54:31;18.4;65.6
79187;SHT31;68762;51.980;5.646;2023-05-07T04:57:00;18.5;65.3
79187;SHT31;68762;51.980;5.646;2023-05-07T04:59:29;18.5;65.3
79187;SHT31;68762;51.980;5.646;2023-05-07T05:01:57;18.5;65.4
79187;SHT31;68762;51.980;5.646;2023-05-07T05:04:26;18.5;65.2
79187;SHT31;68762;51.980;5.646;2023-05-07T05:06:57;18.5;65.3
79187;SHT31;68762;51.980;5.646;2023-05-07T05:09:26;18.5;64.8
79187;SHT31;68762;51.980;5.646;2023-05-07T05:11:54;18.5;65.2
79187;SHT31;68762;51.980;5.646;2023-05-07T05:14:24;18.5;65.5
79187;SHT31;68762;51.980;5.646;2023-05-07T05:16:53;18.5;65.2
79187;SHT31;68762;51.980;5.646;2023-05-07T05:19:22;18.5;65.1
79187;SHT31;68762;51.980;5.646;2023-05-07T05:21:50;18.5;65.4
79187;SHT31;68762;51.980;5.646;2023-05-07T05:24:19;18.5;65.2
79187;SHT31;68762;51.980;5.646;2023-05-07T05:26:47;18.5;65.7
79187;SHT31;68762;51.980;5.646;2023-05-07T05:29:16;18.5;65.7
79187;SHT31;68762;51.980;5.646;2023-05-07T05:31:44;18.5;65.3
79187;SHT31;68762;51.980;5.646;2023-05-07T05:34:15;18.5;65.5
79187;SHT31;68762;51.980;5.646;2023-05-07T05:36:46;18.5;66.1
79187;SHT31;68762;51.980;5.646;2023-05-07T05:39:14;18.5;66.4
79187;SHT31;68762;51.980;5.646;2023-05-07T05:41:43;18.5;66.4
79187;SHT31;68762;51.980;5.646;2023-05-07T05:44:12;18.5;66.4
79187;SHT31;68762;51.980;5.646;2023-05-07T05:46:40;18.5;66.4
79187;SHT31;68762;51.980;5.646;2023-05-07T05:49:09;18.5;66.0
79187;SHT31;68762;51.980;5.646;2023-05-07T05:51:37;18.5;66.1
79187;SHT31;68762;51.980;5.646;2023-05-07T05:54:06;18.5;66.1
79187;SHT31;68762;51.980;5.646;2023-05-07T05:56:36;18.6;65.7
79187;SHT31;68762;51.980;5.646;2023-05-07T05:59:05;18.6;65.4
79187;SHT31;68762;51.980;5.646;2023-05-07T06:01:34;18.6;65.4
79187;SHT31;68762;51.980;5.646;2023-05-07T06:04:03;18.6;65.7
79187;SHT31;68762;51.980;5.646;2023-05-07T06:06:31;18.6;65.9
79187;SHT31;68762;51.980;5.646;2023-05-07T06:09:00;18.6;66.0
79187;SHT31;68762;51.980;5.646;2023-05-07T06:11:28;18.5;65.6
79187;SHT31;68762;51.980;5.646;2023-05-07T06:13:57;18.5;65.7
79187;SHT31;68762;51.980;5.646;2023-05-07T06:16:26;18.5;66.1
79187;SHT31;68762;51.980;5.646;2023-05-07T06:18:54;18.5;66.2
79187;SHT31;68762;51.980;5.646;2023-05-07T06:21:23;18.5;66.1
79187;SHT31;68762;51.980;5.646;2023-05-07T06:23:51;18.5;66.6
79187;SHT31;68762;51.980;5.646;2023-05-07T06:26:21;18.6;67.0
79187;SHT31;68762;51.980;5.646;2023-05-07T06:28:49;18.6;67.3
79187;SHT31;68762;51.980;5.646;2023-05-07T06:31:19;18.6;66.6
79187;SHT31;68762;51.980;5.646;2023-05-07T06:33:49;18.6;66.2
79187;SHT31;68762;51.980;5.646;2023-05-07T06:36:19;18.6;66.6
79187;SHT31;68762;51.980;5.646;2023-05-07T06:38:48;18.7;66.0
79187;SHT31;68762;51.980;5.646;2023-05-07T06:41:17;18.7;65.8
79187;SHT31;68762;51.980;5.646;2023-05-07T06:43:48;18.7;66.4
79187;SHT31;68762;51.980;5.646;2023-05-07T06:46:17;18.7;67.2
79187;SHT31;68762;51.980;5.646;2023-05-07T06:48:46;18.8;66.5
79187;SHT31;68762;51.980;5.646;2023-05-07T06:51:14;18.8;66.9
79187;SHT31;68762;51.980;5.646;2023-05-07T06:53:43;18.8;66.2
79187;SHT31;68762;51.980;5.646;2023-05-07T06:56:11;18.9;66.2
79187;SHT31;68762;51.980;5.646;2023-05-07T06:58:40;18.9;66.7
79187;SHT31;68762;51.980;5.646;2023-05-07T07:01:08;18.9;66.5
79187;SHT31;68762;51.980;5.646;2023-05-07T07:03:37;19.0;66.0
79187;SHT31;68762;51.980;5.646;2023-05-07T07:06:06;19.0;66.1
79187;SHT31;68762;51.980;5.646;2023-05-07T07:08:34;19.1;65.0
79187;SHT31;68762;51.980;5.646;2023-05-07T07:11:05;19.1;66.0
79187;SHT31;68762;51.980;5.646;2023-05-07T07:13:35;19.1;66.2
79187;SHT31;68762;51.980;5.646;2023-05-07T07:16:04;19.2;65.4
79187;SHT31;68762;51.980;5.646;2023-05-07T07:18:33;19.2;65.6
79187;SHT31;68762;51.980;5.646;2023-05-07T07:21:02;19.2;65.2
79187;SHT31;68762;51.980;5.646;2023-05-07T07:23:31;19.3;65.3
79187;SHT31;68762;51.980;5.646;2023-05-07T07:25:59;19.3;64.8
79187;SHT31;68762;51.980;5.646;2023-05-07T07:28:28;19.3;65.2
79187;SHT31;68762;51.980;5.646;2023-05-07T07:30:56;19.3;65.6
79187;SHT31;68762;51.980;5.646;2023-05-07T07:33:25;19.3;65.2
79187;SHT31;68762;51.980;5.646;2023-05-07T07:35:55;19.4;66.0
79187;SHT31;68762;51.980;5.646;2023-05-07T07:38:24;19.4;66.0
79187;SHT31;68762;51.980;5.646;2023-05-07T07:40:53;19.4;65.1
79187;SHT31;68762;51.980;5.646;2023-05-07T07:43:21;19.4;66.7
79187;SHT31;68762;51.980;5.646;2023-05-07T07:45:50;19.5;65.9
79187;SHT31;68762;51.980;5.646;2023-05-07T07:48:18;19.5;66.0
79187;SHT31;68762;51.980;5.646;2023-05-07T07:50:48;19.6;66.4
79187;SHT31;68762;51.980;5.646;2023-05-07T07:53:17;19.6;66.5
79187;SHT31;68762;51.980;5.646;2023-05-07T07:55:50;19.7;66.0
79187;SHT31;68762;51.980;5.646;2023-05-07T07:58:19;19.7;66.8
79187;SHT31;68762;51.980;5.646;2023-05-07T08:00:48;19.8;65.8
79187;SHT31;68762;51.980;5.646;2023-05-07T08:03:17;19.9;65.4
79187;SHT31;68762;51.980;5.646;2023-05-07T08:05:46;19.9;64.8
79187;SHT31;68762;51.980;5.646;2023-05-07T08:08:16;20.0;64.3
79187;SHT31;68762;51.980;5.646;2023-05-07T08:10:49;20.0;64.5
79187;SHT31;68762;51.980;5.646;2023-05-07T08:13:18;20.1;63.4
79187;SHT31;68762;51.980;5.646;2023-05-07T08:15:47;20.1;63.1
79187;SHT31;68762;51.980;5.646;2023-05-07T08:18:15;20.2;62.9
79187;SHT31;68762;51.980;5.646;2023-05-07T08:20:46;20.2;63.0
79187;SHT31;68762;51.980;5.646;2023-05-07T08:23:14;20.3;63.1
79187;SHT31;68762;51.980;5.646;2023-05-07T08:25:43;20.3;63.7
79187;SHT31;68762;51.980;5.646;2023-05-07T08:28:12;20.3;63.8
79187;SHT31;68762;51.980;5.646;2023-05-07T08:30:40;20.4;64.3
79187;SHT31;68762;51.980;5.646;2023-05-07T08:33:10;20.4;64.3
79187;SHT31;68762;51.980;5.646;2023-05-07T08:35:38;20.4;65.3
79187;SHT31;68762;51.980;5.646;2023-05-07T08:38:07;20.5;65.0
79187;SHT31;68762;51.980;5.646;2023-05-07T08:40:37;20.5;64.8
79187;SHT31;68762;51.980;5.646;2023-05-07T08:43:08;20.6;66.3
79187;SHT31;68762;51.980;5.646;2023-05-07T08:45:41;20.7;65.8
79187;SHT31;68762;51.980;5.646;2023-05-07T08:48:15;20.7;65.9
79187;SHT31;68762;51.980;5.646;2023-05-07T08:50:46;20.8;65.7
79187;SHT31;68762;51.980;5.646;2023-05-07T08:53:16;20.9;64.8
79187;SHT31;68762;51.980;5.646;2023-05-07T08:55:46;21.0;65.2
79187;SHT31;68762;51.980;5.646;2023-05-07T08:58:15;21.1;63.5
79187;SHT31;68762;51.980;5.646;2023-05-07T09:00:44;21.3;62.3
79187;SHT31;68762;51.980;5.646;2023-05-07T09:03:13;21.4;65.2
79187;SHT31;68762;51.980;5.646;2023-05-07T09:05:44;21.5;61.8
79187;SHT31;68762;51.980;5.646;2023-05-07T09:08:15;21.6;62.2
79187;SHT31;68762;51.980;5.646;2023-05-07T09:10:46;21.8;65.3
79187;SHT31;68762;51.980;5.646;2023-05-07T09:13:16;22.0;62.2
79187;SHT31;68762;51.980;5.646;2023-05-07T09:15:45;22.2;62.0
79187;SHT31;68762;51.980;5.646;2023-05-07T09:18:16;22.4;61.8
79187;SHT31;68762;51.980;5.646;2023-05-07T09:20:45;22.6;60.3
79187;SHT31;68762;51.980;5.646;2023-05-07T09:23:14;22.9;58.4
79187;SHT31;68762;51.980;5.646;2023-05-07T09:25:42;23.1;57.1
79187;SHT31;68762;51.980;5.646;2023-05-07T09:28:11;23.3;55.7
79187;SHT31;68762;51.980;5.646;2023-05-07T09:30:40;23.5;55.2
79187;SHT31;68762;51.980;5.646;2023-05-07T09:33:08;23.6;52.7
79187;SHT31;68762;51.980;5.646;2023-05-07T09:35:37;23.7;53.6
79187;SHT31;68762;51.980;5.646;2023-05-07T09:38:06;23.7;52.0
79187;SHT31;68762;51.980;5.646;2023-05-07T09:40:36;23.8;53.1
79187;SHT31;68762;51.980;5.646;2023-05-07T09:43:13;23.8;53.2
79187;SHT31;68762;51.980;5.646;2023-05-07T09:45:42;23.9;54.5
79187;SHT31;68762;51.980;5.646;2023-05-07T09:48:14;23.9;52.5
79187;SHT31;68762;51.980;5.646;2023-05-07T09:50:49;24.0;52.1
79187;SHT31;68762;51.980;5.646;2023-05-07T09:53:18;24.0;53.0
79187;SHT31;68762;51.980;5.646;2023-05-07T09:55:47;24.0;52.3
79187;SHT31;68762;51.980;5.646;2023-05-07T09:58:18;24.0;52.9
79187;SHT31;68762;51.980;5.646;2023-05-07T10:00:49;24.1;51.2
79187;SHT31;68762;51.980;5.646;2023-05-07T10:03:19;24.1;51.5
79187;SHT31;68762;51.980;5.646;2023-05-07T10:05:49;24.1;51.5
79187;SHT31;68762;51.980;5.646;2023-05-07T10:08:18;24.1;50.6
79187;SHT31;68762;51.980;5.646;2023-05-07T10:10:49;24.2;51.6
79187;SHT31;68762;51.980;5.646;2023-05-07T10:13:19;24.2;51.7
79187;SHT31;68762;51.980;5.646;2023-05-07T10:15:49;24.2;50.9
79187;SHT31;68762;51.980;5.646;2023-05-07T10:18:19;24.2;50.9
79187;SHT31;68762;51.980;5.646;2023-05-07T10:21:04;24.3;50.3
79187;SHT31;68762;51.980;5.646;2023-05-07T10:23:35;24.3;51.5
79187;SHT31;68762;51.980;5.646;2023-05-07T10:26:06;24.3;52.4
79187;SHT31;68762;51.980;5.646;2023-05-07T10:28:41;24.3;50.3
79187;SHT31;68762;51.980;5.646;2023-05-07T10:31:23;24.3;50.1
79187;SHT31;68762;51.980;5.646;2023-05-07T10:33:55;24.3;49.0
79187;SHT31;68762;51.980;5.646;2023-05-07T10:36:26;24.3;50.0
79187;SHT31;68762;51.980;5.646;2023-05-07T10:38:55;24.3;49.0
79187;SHT31;68762;51.980;5.646;2023-05-07T10:41:24;24.3;48.5
79187;SHT31;68762;51.980;5.646;2023-05-07T10:43:52;24.3;50.2
79187;SHT31;68762;51.980;5.646;2023-05-07T10:46:22;24.3;49.3
79187;SHT31;68762;51.980;5.646;2023-05-07T10:49:10;24.3;49.5
79187;SHT31;68762;51.980;5.646;2023-05-07T10:51:42;24.3;50.9
79187;SHT31;68762;51.980;5.646;2023-05-07T10:54:23;24.3;53.4
79187;SHT31;68762;51.980;5.646;2023-05-07T10:56:54;24.4;51.5
79187;SHT31;68762;51.980;5.646;2023-05-07T10:59:33;24.4;50.8
79187;SHT31;68762;51.980;5.646;2023-05-07T11:02:08;24.5;50.1
79187;SHT31;68762;51.980;5.646;2023-05-07T11:04:37;24.5;49.6
79187;SHT31;68762;51.980;5.646;2023-05-07T11:07:27;24.6;50.8
79187;SHT31;68762;51.980;5.646;2023-05-07T11:10:06;24.6;50.2
79187;SHT31;68762;51.980;5.646;2023-05-07T11:12:53;24.7;50.2
79187;SHT31;68762;51.980;5.646;2023-05-07T11:15:42;24.8;50.3
79187;SHT31;68762;51.980;5.646;2023-05-07T11:18:13;24.8;48.7
79187;SHT31;68762;51.980;5.646;2023-05-07T11:20:52;24.9;48.7
79187;SHT31;68762;51.980;5.646;2023-05-07T11:23:58;25.0;47.1
79187;SHT31;68762;51.980;5.646;2023-05-07T11:26:29;25.0;47.1
79187;SHT31;68762;51.980;5.646;2023-05-07T11:29:12;25.0;47.6
79187;SHT31;68762;51.980;5.646;2023-05-07T11:31:41;25.1;49.6
79187;SHT31;68762;51.980;5.646;2023-05-07T11:34:13;25.1;48.9
79187;SHT31;68762;51.980;5.646;2023-05-07T11:36:45;25.1;48.2
79187;SHT31;68762;51.980;5.646;2023-05-07T11:39:31;25.2;47.0
79187;SHT31;68762;51.980;5.646;2023-05-07T11:42:00;25.2;48.4
79187;SHT31;68762;51.980;5.646;2023-05-07T11:44:42;25.2;48.6
79187;SHT31;68762;51.980;5.646;2023-05-07T11:47:19;25.2;49.6
79187;SHT31;68762;51.980;5.646;2023-05-07T11:49:50;25.3;46.4
79187;SHT31;68762;51.980;5.646;2023-05-07T11:52:21;25.3;45.2
79187;SHT31;68762;51.980;5.646;2023-05-07T11:54:51;25.3;46.4
79187;SHT31;68762;51.980;5.646;2023-05-07T11:57:21;25.3;45.8
79187;SHT31;68762;51.980;5.646;2023-05-07T11:59:52;25.4;47.6
79187;SHT31;68762;51.980;5.646;2023-05-07T12:02:21;25.4;47.0
79187;SHT31;68762;51.980;5.646;2023-05-07T12:04:51;25.4;48.3
79187;SHT31;68762;51.980;5.646;2023-05-07T12:07:20;25.4;48.1
79187;SHT31;68762;51.980;5.646;2023-05-07T12:09:51;25.4;48.0
79187;SHT31;68762;51.980;5.646;2023-05-07T12:12:20;25.4;48.6
79187;SHT31;68762;51.980;5.646;2023-05-07T12:14:48;25.5;49.1
79187;SHT31;68762;51.980;5.646;2023-05-07T12:17:17;25.5;48.7
79187;SHT31;68762;51.980;5.646;2023-05-07T12:19:47;25.5;47.5
79187;SHT31;68762;51.980;5.646;2023-05-07T12:22:17;25.5;47.6
79187;SHT31;68762;51.980;5.646;2023-05-07T12:24:49;25.6;47.5
79187;SHT31;68762;51.980;5.646;2023-05-07T12:27:18;25.6;48.6
79187;SHT31;68762;51.980;5.646;2023-05-07T12:29:48;25.7;51.6
79187;SHT31;68762;51.980;5.646;2023-05-07T12:32:18;25.8;50.2
79187;SHT31;68762;51.980;5.646;2023-05-07T12:34:50;25.9;47.7
79187;SHT31;68762;51.980;5.646;2023-05-07T12:37:23;26.0;45.6
79187;SHT31;68762;51.980;5.646;2023-05-07T12:40:05;26.1;46.6
79187;SHT31;68762;51.980;5.646;2023-05-07T12:42:35;26.2;45.4
79187;SHT31;68762;51.980;5.646;2023-05-07T12:45:09;26.3;46.4
79187;SHT31;68762;51.980;5.646;2023-05-07T12:47:38;26.4;45.0
79187;SHT31;68762;51.980;5.646;2023-05-07T12:50:07;26.5;46.2
79187;SHT31;68762;51.980;5.646;2023-05-07T12:52:36;26.6;44.1
79187;SHT31;68762;51.980;5.646;2023-05-07T12:55:08;26.7;44.4
79187;SHT31;68762;51.980;5.646;2023-05-07T12:57:43;26.7;44.6
79187;SHT31;68762;51.980;5.646;2023-05-07T13:00:12;26.8;44.3
79187;SHT31;68762;51.980;5.646;2023-05-07T13:02:43;26.9;43.0
79187;SHT31;68762;51.980;5.646;2023-05-07T13:05:13;26.9;43.4
79187;SHT31;68762;51.980;5.646;2023-05-07T13:07:54;26.9;43.9
79187;SHT31;68762;51.980;5.646;2023-05-07T13:10:24;26.9;43.5
79187;SHT31;68762;51.980;5.646;2023-05-07T13:12:55;26.8;42.6
79187;SHT31;68762;51.980;5.646;2023-05-07T13:15:23;26.8;42.2
79187;SHT31;68762;51.980;5.646;2023-05-07T13:17:55;26.8;41.4
79187;SHT31;68762;51.980;5.646;2023-05-07T13:20:24;26.7;41.6
79187;SHT31;68762;51.980;5.646;2023-05-07T13:22:52;26.7;44.4
79187;SHT31;68762;51.980;5.646;2023-05-07T13:25:21;26.7;45.2
79187;SHT31;68762;51.980;5.646;2023-05-07T13:27:49;26.6;45.3
79187;SHT31;68762;51.980;5.646;2023-05-07T13:30:20;26.7;44.7
79187;SHT31;68762;51.980;5.646;2023-05-07T13:32:48;26.7;43.1
79187;SHT31;68762;51.980;5.646;2023-05-07T13:35:18;26.7;42.9
79187;SHT31;68762;51.980;5.646;2023-05-07T13:37:47;26.7;44.0
79187;SHT31;68762;51.980;5.646;2023-05-07T13:40:16;26.7;43.1
79187;SHT31;68762;51.980;5.646;2023-05-07T13:42:44;26.8;44.0
79187;SHT31;68762;51.980;5.646;2023-05-07T13:45:15;26.8;41.8
79187;SHT31;68762;51.980;5.646;2023-05-07T13:47:44;26.8;42.0
79187;SHT31;68762;51.980;5.646;2023-05-07T13:50:13;26.9;42.9
79187;SHT31;68762;51.980;5.646;2023-05-07T13:52:44;26.9;40.8
79187;SHT31;68762;51.980;5.646;2023-05-07T13:55:17;26.9;40.9
79187;SHT31;68762;51.980;5.646;2023-05-07T13:57:47;26.9;41.6
79187;SHT31;68762;51.980;5.646;2023-05-07T14:00:16;26.9;43.5
79187;SHT31;68762;51.980;5.646;2023-05-07T14:02:44;26.9;41.4
79187;SHT31;68762;51.980;5.646;2023-05-07T14:05:13;26.9;41.3
79187;SHT31;68762;51.980;5.646;2023-05-07T14:07:42;26.9;41.3
79187;SHT31;68762;51.980;5.646;2023-05-07T14:10:11;26.9;43.2
79187;SHT31;68762;51.980;5.646;2023-05-07T14:12:39;26.9;41.8
79187;SHT31;68762;51.980;5.646;2023-05-07T14:15:11;26.9;42.4
79187;SHT31;68762;51.980;5.646;2023-05-07T14:17:39;26.9;44.7
79187;SHT31;68762;51.980;5.646;2023-05-07T14:20:09;26.8;45.6
79187;SHT31;68762;51.980;5.646;2023-05-07T14:22:38;26.8;43.5
79187;SHT31;68762;51.980;5.646;2023-05-07T14:25:08;26.8;44.8
79187;SHT31;68762;51.980;5.646;2023-05-07T14:27:37;26.8;44.4
79187;SHT31;68762;51.980;5.646;2023-05-07T14:30:07;26.8;44.9
79187;SHT31;68762;51.980;5.646;2023-05-07T14:32:36;26.8;44.2
79187;SHT31;68762;51.980;5.646;2023-05-07T14:35:05;26.8;45.1
79187;SHT31;68762;51.980;5.646;2023-05-07T14:37:34;26.8;43.3
79187;SHT31;68762;51.980;5.646;2023-05-07T14:40:03;26.7;45.2
79187;SHT31;68762;51.980;5.646;2023-05-07T14:42:32;26.7;44.3
79187;SHT31;68762;51.980;5.646;2023-05-07T14:45:01;26.7;44.3
79187;SHT31;68762;51.980;5.646;2023-05-07T14:47:30;26.6;44.5
79187;SHT31;68762;51.980;5.646;2023-05-07T14:49:59;26.6;44.1
79187;SHT31;68762;51.980;5.646;2023-05-07T14:52:27;26.6;44.3
79187;SHT31;68762;51.980;5.646;2023-05-07T14:54:57;26.5;45.0
79187;SHT31;68762;51.980;5.646;2023-05-07T14:57:26;26.5;44.8
79187;SHT31;68762;51.980;5.646;2023-05-07T14:59:57;26.5;44.4
79187;SHT31;68762;51.980;5.646;2023-05-07T15:02:25;26.5;44.7
79187;SHT31;68762;51.980;5.646;2023-05-07T15:04:54;26.4;45.7
79187;SHT31;68762;51.980;5.646;2023-05-07T15:07:23;26.4;46.2
79187;SHT31;68762;51.980;5.646;2023-05-07T15:09:51;26.4;44.0
79187;SHT31;68762;51.980;5.646;2023-05-07T15:12:20;26.4;43.9
79187;SHT31;68762;51.980;5.646;2023-05-07T15:14:48;26.4;44.4
79187;SHT31;68762;51.980;5.646;2023-05-07T15:17:17;26.3;43.5
79187;SHT31;68762;51.980;5.646;2023-05-07T15:19:46;26.3;43.3
79187;SHT31;68762;51.980;5.646;2023-05-07T15:22:14;26.1;44.0
79187;SHT31;68762;51.980;5.646;2023-05-07T15:24:43;26.0;44.1
79187;SHT31;68762;51.980;5.646;2023-05-07T15:27:12;25.8;43.4
79187;SHT31;68762;51.980;5.646;2023-05-07T15:29:41;25.6;42.6
79187;SHT31;68762;51.980;5.646;2023-05-07T15:32:09;25.4;43.0
79187;SHT31;68762;51.980;5.646;2023-05-07T15:34:39;25.2;42.9
79187;SHT31;68762;51.980;5.646;2023-05-07T15:37:08;25.0;43.3
79187;SHT31;68762;51.980;5.646;2023-05-07T15:39:36;24.8;44.0
79187;SHT31;68762;51.980;5.646;2023-05-07T15:42:05;24.5;44.7
79187;SHT31;68762;51.980;5.646;2023-05-07T15:44:35;24.3;45.5
79187;SHT31;68762;51.980;5.646;2023-05-07T15:47:03;24.0;46.7
79187;SHT31;68762;51.980;5.646;2023-05-07T15:49:32;23.8;48.2
79187;SHT31;68762;51.980;5.646;2023-05-07T15:52:02;23.6;49.7
79187;SHT31;68762;51.980;5.646;2023-05-07T15:54:31;23.4;51.2
79187;SHT31;68762;51.980;5.646;2023-05-07T15:57:00;23.2;52.0
79187;SHT31;68762;51.980;5.646;2023-05-07T15:59:29;23.0;50.8
79187;SHT31;68762;51.980;5.646;2023-05-07T16:01:58;22.8;53.0
79187;SHT31;68762;51.980;5.646;2023-05-07T16:04:27;22.6;52.8
79187;SHT31;68762;51.980;5.646;2023-05-07T16:06:56;22.5;54.8
79187;SHT31;68762;51.980;5.646;2023-05-07T16:09:25;22.3;55.8
79187;SHT31;68762;51.980;5.646;2023-05-07T16:11:54;22.2;56.0
79187;SHT31;68762;51.980;5.646;2023-05-07T16:14:23;22.1;56.5
79187;SHT31;68762;51.980;5.646;2023-05-07T16:16:52;22.1;56.8
79187;SHT31;68762;51.980;5.646;2023-05-07T16:19:21;22.0;57.5